Time,TemperatureF,DewpointF,PressureIn,WindDirection,WindDirectionDegrees,WindSpeedMPH,WindSpeedGustMPH,Humidity,HourlyPrecipIn,Conditions,Clouds,dailyrainin,SolarRadiationWatts/m^2,SoftwareType,DateUTC
2013-09-08 00:00:00,69.0,63.0,-100.00,West,270,2.0,-999.0,80,-99.99,,,-99.99,0.000000,,2013-09-08 04:00:00,
2013-09-08 00:43:00,69.0,63.0,-100.00,West,270,2.0,-999.0,80,-99.99,,,-99.99,0.000000,,2013-09-08 04:43:00,
2013-09-08 00:54:00,69.0,63.0,-100.00,West,270,2.0,-999.0,80,-99.99,,,-99.99,0.000000,,2013-09-08 04:54:00,
2013-09-08 01:00:00,69.0,62.0,-100.00,WNW,292,3.0,-999.0,80,-99.99,,,-99.99,0.000000,,2013-09-08 05:00:00,
2013-09-08 01:43:00,69.0,62.0,-100.00,WNW,292,3.0,-999.0,80,-99.99,,,-99.99,0.000000,,2013-09-08 05:43:00,
2013-09-08 01:52:00,69.0,62.0,-100.00,WNW,292,3.0,-999.0,80,-99.99,,,-99.99,0.000000,,2013-09-08 05:52:00,
2013-09-08 02:00:00,68.0,62.0,-100.00,WNW,292,2.0,-999.0,83,-99.99,,,-99.99,0.000000,,2013-09-08 06:00:00,
2013-09-08 02:42:00,68.0,62.0,-100.00,WNW,292,2.0,-999.0,83,-99.99,,,-99.99,0.000000,,2013-09-08 06:42:00,
2013-09-08 02:53:00,68.0,62.0,-100.00,WNW,292,2.0,-999.0,83,-99.99,,,-99.99,0.000000,,2013-09-08 06:53:00,
2013-09-08 03:00:00,68.0,64.0,-100.00,WNW,292,1.0,-999.0,87,-99.99,,,-99.99,0.000000,,2013-09-08 07:00:00,
2013-09-08 03:42:00,68.0,64.0,-100.00,WNW,292,1.0,-999.0,87,-99.99,,,-99.99,0.000000,,2013-09-08 07:42:00,
2013-09-08 03:52:00,68.0,64.0,-100.00,WNW,292,1.0,-999.0,87,-99.99,,,-99.99,0.000000,,2013-09-08 07:52:00,
2013-09-08 04:00:00,68.0,64.0,-100.00,SSW,202,1.0,-999.0,89,-99.99,,,-99.99,0.000000,,2013-09-08 08:00:00,
2013-09-08 04:42:00,68.0,64.0,-100.00,SSW,202,1.0,-999.0,89,-99.99,,,-99.99,0.000000,,2013-09-08 08:42:00,
2013-09-08 04:52:00,68.0,64.0,-100.00,SSW,202,1.0,-999.0,89,-99.99,,,-99.99,0.000000,,2013-09-08 08:52:00,
2013-09-08 05:00:00,68.0,63.0,-100.00,SSW,202,1.0,-999.0,85,-99.99,,,-99.99,0.000000,,2013-09-08 09:00:00,
2013-09-08 05:43:00,68.0,63.0,-100.00,SSW,202,1.0,-999.0,85,-99.99,,,-99.99,0.000000,,2013-09-08 09:43:00,
2013-09-08 05:54:00,68.0,63.0,-100.00,SSW,202,1.0,-999.0,85,-99.99,,,-99.99,0.000000,,2013-09-08 09:54:00,
2013-09-08 06:00:00,66.0,61.0,-100.00,South,180,2.0,-999.0,85,-99.99,,,-99.99,0.000000,,2013-09-08 10:00:00,
2013-09-08 06:43:00,66.0,61.0,-100.00,South,180,2.0,-999.0,85,-99.99,,,-99.99,0.000000,,2013-09-08 10:43:00,
2013-09-08 06:53:00,66.0,61.0,-100.00,South,180,2.0,-999.0,85,-99.99,,,-99.99,0.000000,,2013-09-08 10:53:00,
2013-09-08 07:00:00,65.0,59.0,-100.00,SE,135,1.0,-999.0,82,-99.99,,,-99.99,0.000000,,2013-09-08 11:00:00,
2013-09-08 07:42:00,65.0,59.0,-100.00,SE,135,1.0,-999.0,82,-99.99,,,-99.99,0.000000,,2013-09-08 11:42:00,
2013-09-08 07:52:00,65.0,59.0,-100.00,SE,135,1.0,-999.0,82,-99.99,,,-99.99,0.000000,,2013-09-08 11:52:00,
2013-09-08 08:00:00,65.0,59.0,-100.00,SE,135,1.0,-999.0,81,-99.99,,,-99.99,9.280000,,2013-09-08 12:00:00,
2013-09-08 08:42:00,65.0,59.0,-100.00,SE,135,1.0,-999.0,81,-99.99,,,-99.99,9.280000,,2013-09-08 12:42:00,
2013-09-08 08:52:00,65.0,59.0,-100.00,SE,135,1.0,-999.0,81,-99.99,,,-99.99,9.280000,,2013-09-08 12:52:00,
2013-09-08 09:00:00,65.0,60.0,-100.00,ESE,112,1.0,-999.0,82,-99.99,,,-99.99,37.119999,,2013-09-08 13:00:00,
2013-09-08 09:42:00,65.0,60.0,-100.00,ESE,112,1.0,-999.0,82,-99.99,,,-99.99,37.119999,,2013-09-08 13:42:00,
2013-09-08 09:52:00,65.0,60.0,-100.00,ESE,112,1.0,-999.0,82,-99.99,,,-99.99,37.119999,,2013-09-08 13:52:00,
2013-09-08 10:00:00,63.0,58.0,-100.00,SE,135,4.0,-999.0,82,-99.99,,,-99.99,68.440002,,2013-09-08 14:00:00,
2013-09-08 10:42:00,63.0,58.0,-100.00,SE,135,4.0,-999.0,82,-99.99,,,-99.99,68.440002,,2013-09-08 14:42:00,
2013-09-08 10:52:00,63.0,58.0,-100.00,SE,135,4.0,-999.0,82,-99.99,,,-99.99,68.440002,,2013-09-08 14:52:00,
2013-09-08 11:00:00,64.0,56.0,-100.00,ESE,112,3.0,-999.0,74,-99.99,,,-99.99,337.559998,,2013-09-08 15:00:00,
2013-09-08 11:45:00,64.0,56.0,-100.00,ESE,112,3.0,-999.0,74,-99.99,,,-99.99,337.559998,,2013-09-08 15:45:00,
2013-09-08 11:55:00,64.0,56.0,-100.00,ESE,112,3.0,-999.0,74,-99.99,,,-99.99,337.559998,,2013-09-08 15:55:00,
2013-09-08 12:00:00,68.0,55.0,-100.00,ESE,112,3.0,-999.0,63,-99.99,,,-99.99,593.919983,,2013-09-08 16:00:00,
2013-09-08 12:44:00,68.0,55.0,-100.00,ESE,112,3.0,-999.0,63,-99.99,,,-99.99,593.919983,,2013-09-08 16:44:00,
2013-09-08 12:54:00,68.0,55.0,-100.00,ESE,112,3.0,-999.0,63,-99.99,,,-99.99,593.919983,,2013-09-08 16:54:00,
2013-09-08 13:00:00,69.0,54.0,-100.00,East,90,3.0,-999.0,58,-99.99,,,-99.99,663.520020,,2013-09-08 17:00:00,
2013-09-08 13:43:00,69.0,54.0,-100.00,East,90,3.0,-999.0,58,-99.99,,,-99.99,663.520020,,2013-09-08 17:43:00,
2013-09-08 13:53:00,69.0,54.0,-100.00,East,90,3.0,-999.0,58,-99.99,,,-99.99,663.520020,,2013-09-08 17:53:00,
2013-09-08 14:00:00,69.0,51.0,-100.00,ESE,112,3.0,-999.0,51,-99.99,,,-99.99,697.159973,,2013-09-08 18:00:00,
2013-09-08 14:42:00,69.0,51.0,-100.00,ESE,112,3.0,-999.0,51,-99.99,,,-99.99,697.159973,,2013-09-08 18:42:00,
2013-09-08 14:52:00,69.0,51.0,-100.00,ESE,112,3.0,-999.0,51,-99.99,,,-99.99,697.159973,,2013-09-08 18:52:00,
2013-09-08 15:00:00,70.0,50.0,-100.00,SE,135,2.0,-999.0,48,-99.99,,,-99.99,647.280029,,2013-09-08 19:00:00,
2013-09-08 15:42:00,70.0,50.0,-100.00,SE,135,2.0,-999.0,48,-99.99,,,-99.99,647.280029,,2013-09-08 19:42:00,
2013-09-08 15:52:00,70.0,50.0,-100.00,SE,135,2.0,-999.0,48,-99.99,,,-99.99,647.280029,,2013-09-08 19:52:00,
2013-09-08 16:00:00,70.0,50.0,-100.00,SE,135,2.0,-999.0,47,-99.99,,,-99.99,509.239990,,2013-09-08 20:00:00,
2013-09-08 16:42:00,70.0,50.0,-100.00,SE,135,2.0,-999.0,47,-99.99,,,-99.99,509.239990,,2013-09-08 20:42:00,
2013-09-08 16:53:00,70.0,50.0,-100.00,SE,135,2.0,-999.0,47,-99.99,,,-99.99,509.239990,,2013-09-08 20:53:00,
2013-09-08 17:00:00,70.0,49.0,-100.00,ESE,112,1.0,-999.0,47,-99.99,,,-99.99,373.519989,,2013-09-08 21:00:00,
2013-09-08 17:44:00,70.0,49.0,-100.00,ESE,112,1.0,-999.0,47,-99.99,,,-99.99,373.519989,,2013-09-08 21:44:00,
2013-09-08 17:54:00,70.0,49.0,-100.00,ESE,112,1.0,-999.0,47,-99.99,,,-99.99,373.519989,,2013-09-08 21:54:00,
2013-09-08 18:00:00,70.0,49.0,-100.00,ESE,112,1.0,-999.0,47,-99.99,,,-99.99,265.640015,,2013-09-08 22:00:00,
2013-09-08 18:44:00,70.0,49.0,-100.00,ESE,112,1.0,-999.0,47,-99.99,,,-99.99,265.640015,,2013-09-08 22:44:00,
2013-09-08 18:53:00,70.0,49.0,-100.00,ESE,112,1.0,-999.0,47,-99.99,,,-99.99,265.640015,,2013-09-08 22:53:00,
2013-09-08 19:00:00,68.0,48.0,-100.00,ESE,112,0.0,-999.0,50,-99.99,,,-99.99,134.559998,,2013-09-08 23:00:00,
2013-09-08 19:42:00,68.0,48.0,-100.00,ESE,112,0.0,-999.0,50,-99.99,,,-99.99,134.559998,,2013-09-08 23:42:00,
2013-09-08 19:53:00,68.0,48.0,-100.00,ESE,112,0.0,-999.0,50,-99.99,,,-99.99,134.559998,,2013-09-08 23:53:00,
2013-09-08 20:00:00,63.0,48.0,-100.00,ESE,112,0.0,-999.0,58,-99.99,,,-99.99,26.680000,,2013-09-09 00:00:00,
2013-09-08 20:42:00,63.0,48.0,-100.00,ESE,112,0.0,-999.0,58,-99.99,,,-99.99,26.680000,,2013-09-09 00:42:00,
2013-09-08 20:52:00,63.0,48.0,-100.00,ESE,112,0.0,-999.0,58,-99.99,,,-99.99,26.680000,,2013-09-09 00:52:00,
2013-09-08 21:00:00,59.0,47.0,-100.00,SE,135,0.0,-999.0,65,-99.99,,,-99.99,0.000000,,2013-09-09 01:00:00,
2013-09-08 21:42:00,59.0,47.0,-100.00,SE,135,0.0,-999.0,65,-99.99,,,-99.99,0.000000,,2013-09-09 01:42:00,
2013-09-08 21:52:00,59.0,47.0,-100.00,SE,135,0.0,-999.0,65,-99.99,,,-99.99,0.000000,,2013-09-09 01:52:00,
2013-09-08 22:00:00,57.0,47.0,-100.00,ESE,112,1.0,-999.0,68,-99.99,,,-99.99,0.000000,,2013-09-09 02:00:00,
2013-09-08 22:42:00,57.0,47.0,-100.00,ESE,112,1.0,-999.0,68,-99.99,,,-99.99,0.000000,,2013-09-09 02:42:00,
2013-09-08 22:53:00,57.0,47.0,-100.00,ESE,112,1.0,-999.0,68,-99.99,,,-99.99,0.000000,,2013-09-09 02:53:00,
2013-09-08 23:00:00,55.0,48.0,-100.00,WSW,247,0.0,-999.0,75,-99.99,,,-99.99,0.000000,,2013-09-09 03:00:00,
2013-09-08 23:44:00,55.0,48.0,-100.00,WSW,247,0.0,-999.0,75,-99.99,,,-99.99,0.000000,,2013-09-09 03:44:00,
2013-09-08 23:55:00,55.0,48.0,-100.00,WSW,247,0.0,-999.0,75,-99.99,,,-99.99,0.000000,,2013-09-09 03:55:00,